Terminal Aerodrome Forecast
Issued by NWS Cleveland, OH

Home | Current Version | Previous Version | Text Only | Print | Product List | Glossary Off
Versions: 1 2 3 4 5 6 7 8 9 10 11 12 13 14 15 16 17 18 19 20 21 22 23 24 25 26 27

457
FTUS41 KCLE 210534
TAFCLE
TAF
KCLE 210534Z 2106/2212 18005KT P6SM SCT050 BKN100
     FM210900 23005KT P6SM BKN050
     FM211700 32008KT P6SM SCT045
     FM220200 16005KT P6SM SCT200=

USA.gov is the U.S. government's official web portal to all federal, state and local government web resources and services.